sensor_id;sensor_type;location;lat;lon;timestamp;P1;durP1;ratioP1;P2;durP2;ratioP2
13252;SDS011;6693;54.370;10.132;2022-07-29T00:01:15;4.10;;;2.88;;
13252;SDS011;6693;54.370;10.132;2022-07-29T00:03:18;4.72;;;3.05;;
13252;SDS011;6693;54.370;10.132;2022-07-29T00:05:19;3.85;;;3.10;;
13252;SDS011;6693;54.370;10.132;2022-07-29T00:07:21;4.15;;;3.50;;
13252;SDS011;6693;54.370;10.132;2022-07-29T00:09:24;4.38;;;3.70;;
13252;SDS011;6693;54.370;10.132;2022-07-29T00:11:26;4.35;;;3.95;;
13252;SDS011;6693;54.370;10.132;2022-07-29T00:13:27;5.03;;;4.40;;
13252;SDS011;6693;54.370;10.132;2022-07-29T00:15:29;4.40;;;3.95;;
13252;SDS011;6693;54.370;10.132;2022-07-29T00:17:31;4.00;;;3.60;;
13252;SDS011;6693;54.370;10.132;2022-07-29T00:19:34;3.72;;;3.42;;
13252;SDS011;6693;54.370;10.132;2022-07-29T00:21:35;4.40;;;3.70;;
13252;SDS011;6693;54.370;10.132;2022-07-29T00:23:37;4.10;;;3.38;;
13252;SDS011;6693;54.370;10.132;2022-07-29T00:25:40;3.95;;;3.33;;
13252;SDS011;6693;54.370;10.132;2022-07-29T00:27:42;3.72;;;3.20;;
13252;SDS011;6693;54.370;10.132;2022-07-29T00:29:45;5.75;;;4.10;;
13252;SDS011;6693;54.370;10.132;2022-07-29T00:31:47;4.03;;;3.50;;
13252;SDS011;6693;54.370;10.132;2022-07-29T00:33:49;4.40;;;3.38;;
13252;SDS011;6693;54.370;10.132;2022-07-29T00:35:50;5.13;;;3.72;;
13252;SDS011;6693;54.370;10.132;2022-07-29T00:37:51;5.72;;;3.70;;
13252;SDS011;6693;54.370;10.132;2022-07-29T00:39:53;5.25;;;3.53;;
13252;SDS011;6693;54.370;10.132;2022-07-29T00:41:56;5.22;;;3.67;;
13252;SDS011;6693;54.370;10.132;2022-07-29T00:43:57;5.32;;;3.72;;
13252;SDS011;6693;54.370;10.132;2022-07-29T00:45:59;5.18;;;3.55;;
13252;SDS011;6693;54.370;10.132;2022-07-29T00:48:01;5.57;;;3.70;;
13252;SDS011;6693;54.370;10.132;2022-07-29T00:50:04;5.10;;;3.10;;
13252;SDS011;6693;54.370;10.132;2022-07-29T00:52:08;3.50;;;3.05;;
13252;SDS011;6693;54.370;10.132;2022-07-29T00:54:11;4.80;;;3.45;;
13252;SDS011;6693;54.370;10.132;2022-07-29T00:56:13;3.70;;;3.28;;
13252;SDS011;6693;54.370;10.132;2022-07-29T00:58:16;8.07;;;3.60;;
13252;SDS011;6693;54.370;10.132;2022-07-29T01:00:19;3.65;;;3.10;;
13252;SDS011;6693;54.370;10.132;2022-07-29T01:02:22;3.88;;;3.00;;
13252;SDS011;6693;54.370;10.132;2022-07-29T01:04:24;4.18;;;3.33;;
13252;SDS011;6693;54.370;10.132;2022-07-29T01:06:26;3.78;;;3.00;;
13252;SDS011;6693;54.370;10.132;2022-07-29T01:08:28;4.93;;;3.13;;
13252;SDS011;6693;54.370;10.132;2022-07-29T01:10:31;4.15;;;3.00;;
13252;SDS011;6693;54.370;10.132;2022-07-29T01:12:33;3.40;;;3.10;;
13252;SDS011;6693;54.370;10.132;2022-07-29T01:14:39;4.63;;;4.07;;
13252;SDS011;6693;54.370;10.132;2022-07-29T01:16:42;5.53;;;4.72;;
13252;SDS011;6693;54.370;10.132;2022-07-29T01:18:56;3.78;;;3.40;;
13252;SDS011;6693;54.370;10.132;2022-07-29T01:21:17;3.63;;;3.33;;
13252;SDS011;6693;54.370;10.132;2022-07-29T01:28:49;4.30;;;3.30;;
13252;SDS011;6693;54.370;10.132;2022-07-29T01:30:59;5.30;;;3.10;;
13252;SDS011;6693;54.370;10.132;2022-07-29T01:33:05;4.45;;;3.13;;
13252;SDS011;6693;54.370;10.132;2022-07-29T01:35:13;7.20;;;3.42;;
13252;SDS011;6693;54.370;10.132;2022-07-29T01:37:20;4.43;;;4.00;;
13252;SDS011;6693;54.370;10.132;2022-07-29T01:39:26;6.78;;;6.15;;
13252;SDS011;6693;54.370;10.132;2022-07-29T01:41:31;6.80;;;5.50;;
13252;SDS011;6693;54.370;10.132;2022-07-29T01:43:36;6.75;;;6.15;;
13252;SDS011;6693;54.370;10.132;2022-07-29T01:45:43;8.80;;;6.82;;
13252;SDS011;6693;54.370;10.132;2022-07-29T01:47:50;6.68;;;6.07;;
13252;SDS011;6693;54.370;10.132;2022-07-29T01:49:57;7.68;;;6.88;;
13252;SDS011;6693;54.370;10.132;2022-07-29T01:52:01;7.75;;;6.95;;
13252;SDS011;6693;54.370;10.132;2022-07-29T01:54:07;7.38;;;5.30;;
13252;SDS011;6693;54.370;10.132;2022-07-29T01:56:13;5.20;;;4.50;;
13252;SDS011;6693;54.370;10.132;2022-07-29T01:58:17;5.80;;;4.30;;
13252;SDS011;6693;54.370;10.132;2022-07-29T02:00:20;5.25;;;3.83;;
13252;SDS011;6693;54.370;10.132;2022-07-29T02:02:24;5.22;;;3.53;;
13252;SDS011;6693;54.370;10.132;2022-07-29T02:04:27;5.85;;;3.50;;
13252;SDS011;6693;54.370;10.132;2022-07-29T02:06:30;3.40;;;3.17;;
13252;SDS011;6693;54.370;10.132;2022-07-29T02:08:33;4.50;;;3.35;;
13252;SDS011;6693;54.370;10.132;2022-07-29T02:10:37;3.72;;;3.33;;
13252;SDS011;6693;54.370;10.132;2022-07-29T02:12:41;3.90;;;3.30;;
13252;SDS011;6693;54.370;10.132;2022-07-29T02:14:44;4.55;;;3.40;;
13252;SDS011;6693;54.370;10.132;2022-07-29T02:16:49;3.75;;;3.15;;
13252;SDS011;6693;54.370;10.132;2022-07-29T02:18:55;4.18;;;3.20;;
13252;SDS011;6693;54.370;10.132;2022-07-29T02:20:59;5.78;;;3.42;;
13252;SDS011;6693;54.370;10.132;2022-07-29T02:23:02;4.40;;;3.05;;
13252;SDS011;6693;54.370;10.132;2022-07-29T02:25:04;3.40;;;3.10;;
13252;SDS011;6693;54.370;10.132;2022-07-29T02:27:07;3.60;;;3.30;;
13252;SDS011;6693;54.370;10.132;2022-07-29T02:29:11;5.13;;;3.30;;
13252;SDS011;6693;54.370;10.132;2022-07-29T02:31:14;3.28;;;3.08;;
13252;SDS011;6693;54.370;10.132;2022-07-29T02:33:18;3.53;;;3.22;;
13252;SDS011;6693;54.370;10.132;2022-07-29T02:35:23;3.80;;;3.50;;
13252;SDS011;6693;54.370;10.132;2022-07-29T02:37:26;4.00;;;3.58;;
13252;SDS011;6693;54.370;10.132;2022-07-29T02:39:29;3.42;;;3.13;;
13252;SDS011;6693;54.370;10.132;2022-07-29T02:41:33;4.18;;;3.05;;
13252;SDS011;6693;54.370;10.132;2022-07-29T02:43:41;3.83;;;3.50;;
13252;SDS011;6693;54.370;10.132;2022-07-29T02:45:44;4.38;;;3.60;;
13252;SDS011;6693;54.370;10.132;2022-07-29T02:47:48;4.57;;;3.80;;
13252;SDS011;6693;54.370;10.132;2022-07-29T02:49:53;4.57;;;4.10;;
13252;SDS011;6693;54.370;10.132;2022-07-29T02:52:00;6.45;;;3.58;;
13252;SDS011;6693;54.370;10.132;2022-07-29T02:54:04;3.58;;;3.20;;
13252;SDS011;6693;54.370;10.132;2022-07-29T02:56:10;3.30;;;3.00;;
13252;SDS011;6693;54.370;10.132;2022-07-29T02:58:18;3.60;;;3.15;;
13252;SDS011;6693;54.370;10.132;2022-07-29T03:00:29;5.53;;;3.75;;
13252;SDS011;6693;54.370;10.132;2022-07-29T03:02:34;3.95;;;3.58;;
13252;SDS011;6693;54.370;10.132;2022-07-29T03:04:37;3.58;;;3.28;;
13252;SDS011;6693;54.370;10.132;2022-07-29T03:06:42;3.97;;;3.60;;
13252;SDS011;6693;54.370;10.132;2022-07-29T03:08:46;4.95;;;3.70;;
13252;SDS011;6693;54.370;10.132;2022-07-29T03:10:49;4.93;;;3.75;;
13252;SDS011;6693;54.370;10.132;2022-07-29T03:12:52;3.97;;;3.28;;
13252;SDS011;6693;54.370;10.132;2022-07-29T03:14:55;2.85;;;2.65;;
13252;SDS011;6693;54.370;10.132;2022-07-29T03:16:57;3.83;;;3.47;;
13252;SDS011;6693;54.370;10.132;2022-07-29T03:18:59;3.72;;;3.15;;
13252;SDS011;6693;54.370;10.132;2022-07-29T03:21:02;4.03;;;3.15;;
13252;SDS011;6693;54.370;10.132;2022-07-29T03:23:05;4.72;;;2.95;;
13252;SDS011;6693;54.370;10.132;2022-07-29T03:25:08;5.97;;;3.15;;
13252;SDS011;6693;54.370;10.132;2022-07-29T03:27:10;4.93;;;3.40;;
13252;SDS011;6693;54.370;10.132;2022-07-29T03:29:12;5.82;;;3.80;;
13252;SDS011;6693;54.370;10.132;2022-07-29T03:31:14;3.97;;;3.50;;
13252;SDS011;6693;54.370;10.132;2022-07-29T03:33:15;4.40;;;3.15;;
13252;SDS011;6693;54.370;10.132;2022-07-29T03:35:17;3.78;;;3.47;;
13252;SDS011;6693;54.370;10.132;2022-07-29T03:37:19;3.65;;;3.08;;
13252;SDS011;6693;54.370;10.132;2022-07-29T03:39:22;3.85;;;3.00;;
13252;SDS011;6693;54.370;10.132;2022-07-29T03:41:27;3.70;;;3.13;;
13252;SDS011;6693;54.370;10.132;2022-07-29T03:43:31;4.20;;;3.42;;
13252;SDS011;6693;54.370;10.132;2022-07-29T03:45:36;3.83;;;2.90;;
13252;SDS011;6693;54.370;10.132;2022-07-29T03:47:40;5.85;;;4.05;;
13252;SDS011;6693;54.370;10.132;2022-07-29T03:49:46;5.35;;;3.92;;
13252;SDS011;6693;54.370;10.132;2022-07-29T03:51:51;5.07;;;3.63;;
13252;SDS011;6693;54.370;10.132;2022-07-29T03:53:53;3.97;;;3.30;;
13252;SDS011;6693;54.370;10.132;2022-07-29T03:55:56;4.45;;;3.50;;
13252;SDS011;6693;54.370;10.132;2022-07-29T03:58:01;3.13;;;2.83;;
13252;SDS011;6693;54.370;10.132;2022-07-29T04:00:04;4.05;;;3.25;;
13252;SDS011;6693;54.370;10.132;2022-07-29T04:02:08;3.83;;;3.53;;
13252;SDS011;6693;54.370;10.132;2022-07-29T04:04:11;3.40;;;3.03;;
13252;SDS011;6693;54.370;10.132;2022-07-29T04:06:14;4.57;;;3.40;;
13252;SDS011;6693;54.370;10.132;2022-07-29T04:08:15;3.60;;;3.20;;
13252;SDS011;6693;54.370;10.132;2022-07-29T04:10:17;3.95;;;3.55;;
13252;SDS011;6693;54.370;10.132;2022-07-29T04:12:19;3.88;;;3.47;;
13252;SDS011;6693;54.370;10.132;2022-07-29T04:14:23;4.20;;;3.22;;
13252;SDS011;6693;54.370;10.132;2022-07-29T04:16:24;4.28;;;3.22;;
13252;SDS011;6693;54.370;10.132;2022-07-29T04:18:26;4.28;;;3.35;;
13252;SDS011;6693;54.370;10.132;2022-07-29T04:20:28;3.97;;;3.05;;
13252;SDS011;6693;54.370;10.132;2022-07-29T04:22:30;4.03;;;2.95;;
13252;SDS011;6693;54.370;10.132;2022-07-29T04:24:31;4.22;;;3.20;;
13252;SDS011;6693;54.370;10.132;2022-07-29T04:26:33;5.30;;;3.58;;
13252;SDS011;6693;54.370;10.132;2022-07-29T04:28:35;4.25;;;3.20;;
13252;SDS011;6693;54.370;10.132;2022-07-29T04:30:40;5.57;;;3.22;;
13252;SDS011;6693;54.370;10.132;2022-07-29T04:32:42;4.07;;;3.00;;
13252;SDS011;6693;54.370;10.132;2022-07-29T04:34:44;3.70;;;2.92;;
13252;SDS011;6693;54.370;10.132;2022-07-29T04:36:46;4.88;;;3.20;;
13252;SDS011;6693;54.370;10.132;2022-07-29T04:38:48;3.70;;;3.40;;
13252;SDS011;6693;54.370;10.132;2022-07-29T04:40:49;3.42;;;3.13;;
13252;SDS011;6693;54.370;10.132;2022-07-29T04:42:51;5.20;;;3.42;;
13252;SDS011;6693;54.370;10.132;2022-07-29T04:44:53;5.25;;;3.33;;
13252;SDS011;6693;54.370;10.132;2022-07-29T04:46:56;4.93;;;2.92;;
13252;SDS011;6693;54.370;10.132;2022-07-29T04:48:58;3.63;;;2.92;;
13252;SDS011;6693;54.370;10.132;2022-07-29T04:51:00;4.28;;;3.30;;
13252;SDS011;6693;54.370;10.132;2022-07-29T04:53:01;3.20;;;2.90;;
13252;SDS011;6693;54.370;10.132;2022-07-29T04:55:03;5.53;;;3.30;;
13252;SDS011;6693;54.370;10.132;2022-07-29T04:57:06;4.85;;;3.50;;
13252;SDS011;6693;54.370;10.132;2022-07-29T04:59:07;3.30;;;3.00;;
13252;SDS011;6693;54.370;10.132;2022-07-29T05:01:09;4.63;;;3.20;;
13252;SDS011;6693;54.370;10.132;2022-07-29T05:03:12;3.25;;;3.00;;
13252;SDS011;6693;54.370;10.132;2022-07-29T05:05:14;4.53;;;3.25;;
13252;SDS011;6693;54.370;10.132;2022-07-29T05:07:15;4.53;;;3.28;;
13252;SDS011;6693;54.370;10.132;2022-07-29T05:09:17;3.88;;;3.47;;
13252;SDS011;6693;54.370;10.132;2022-07-29T05:11:19;4.00;;;3.60;;
13252;SDS011;6693;54.370;10.132;2022-07-29T05:13:20;3.50;;;3.08;;
13252;SDS011;6693;54.370;10.132;2022-07-29T05:15:22;5.30;;;3.55;;
13252;SDS011;6693;54.370;10.132;2022-07-29T05:17:24;4.32;;;3.42;;
13252;SDS011;6693;54.370;10.132;2022-07-29T05:19:27;3.83;;;3.53;;
13252;SDS011;6693;54.370;10.132;2022-07-29T05:21:28;4.10;;;3.40;;
13252;SDS011;6693;54.370;10.132;2022-07-29T05:23:30;4.57;;;3.58;;
13252;SDS011;6693;54.370;10.132;2022-07-29T05:25:32;3.80;;;3.50;;
13252;SDS011;6693;54.370;10.132;2022-07-29T05:27:33;5.40;;;3.30;;
13252;SDS011;6693;54.370;10.132;2022-07-29T05:29:36;6.25;;;4.30;;
13252;SDS011;6693;54.370;10.132;2022-07-29T05:31:38;3.97;;;3.55;;
13252;SDS011;6693;54.370;10.132;2022-07-29T05:33:39;5.80;;;3.55;;
13252;SDS011;6693;54.370;10.132;2022-07-29T05:35:42;6.78;;;3.40;;
13252;SDS011;6693;54.370;10.132;2022-07-29T05:37:44;3.63;;;3.30;;
13252;SDS011;6693;54.370;10.132;2022-07-29T05:39:45;3.92;;;3.05;;
13252;SDS011;6693;54.370;10.132;2022-07-29T05:41:47;5.35;;;3.53;;
13252;SDS011;6693;54.370;10.132;2022-07-29T05:43:49;4.45;;;3.25;;
13252;SDS011;6693;54.370;10.132;2022-07-29T05:45:50;3.28;;;2.88;;
13252;SDS011;6693;54.370;10.132;2022-07-29T05:47:52;4.70;;;3.33;;
13252;SDS011;6693;54.370;10.132;2022-07-29T05:49:54;3.72;;;3.42;;
13252;SDS011;6693;54.370;10.132;2022-07-29T05:51:57;5.55;;;3.42;;
13252;SDS011;6693;54.370;10.132;2022-07-29T05:53:59;6.00;;;3.75;;
13252;SDS011;6693;54.370;10.132;2022-07-29T05:56:02;5.32;;;3.55;;
13252;SDS011;6693;54.370;10.132;2022-07-29T05:58:04;4.95;;;3.60;;
13252;SDS011;6693;54.370;10.132;2022-07-29T06:00:06;6.43;;;3.88;;
13252;SDS011;6693;54.370;10.132;2022-07-29T06:02:08;4.18;;;3.35;;
13252;SDS011;6693;54.370;10.132;2022-07-29T06:04:11;5.10;;;3.50;;
13252;SDS011;6693;54.370;10.132;2022-07-29T06:06:13;8.00;;;3.75;;
13252;SDS011;6693;54.370;10.132;2022-07-29T06:08:16;4.60;;;3.55;;
13252;SDS011;6693;54.370;10.132;2022-07-29T06:10:18;8.25;;;4.35;;
13252;SDS011;6693;54.370;10.132;2022-07-29T06:12:19;6.20;;;3.80;;
13252;SDS011;6693;54.370;10.132;2022-07-29T06:14:21;4.25;;;3.83;;
13252;SDS011;6693;54.370;10.132;2022-07-29T06:16:23;4.65;;;3.60;;
13252;SDS011;6693;54.370;10.132;2022-07-29T06:18:26;5.40;;;3.90;;
13252;SDS011;6693;54.370;10.132;2022-07-29T06:20:28;6.28;;;3.63;;
13252;SDS011;6693;54.370;10.132;2022-07-29T06:22:30;5.60;;;3.85;;
13252;SDS011;6693;54.370;10.132;2022-07-29T06:24:33;4.93;;;3.65;;
13252;SDS011;6693;54.370;10.132;2022-07-29T06:26:37;6.78;;;3.70;;
13252;SDS011;6693;54.370;10.132;2022-07-29T06:28:39;5.40;;;3.65;;
13252;SDS011;6693;54.370;10.132;2022-07-29T06:30:41;4.82;;;3.70;;
13252;SDS011;6693;54.370;10.132;2022-07-29T06:32:42;6.55;;;3.78;;
13252;SDS011;6693;54.370;10.132;2022-07-29T06:34:44;9.77;;;3.70;;
13252;SDS011;6693;54.370;10.132;2022-07-29T06:36:46;5.15;;;3.63;;
13252;SDS011;6693;54.370;10.132;2022-07-29T06:38:49;5.05;;;3.42;;
13252;SDS011;6693;54.370;10.132;2022-07-29T06:40:52;5.95;;;3.60;;
13252;SDS011;6693;54.370;10.132;2022-07-29T06:43:03;4.30;;;3.60;;
13252;SDS011;6693;54.370;10.132;2022-07-29T06:45:06;6.40;;;4.25;;
13252;SDS011;6693;54.370;10.132;2022-07-29T06:47:08;7.82;;;4.28;;
13252;SDS011;6693;54.370;10.132;2022-07-29T06:49:10;6.10;;;4.50;;
13252;SDS011;6693;54.370;10.132;2022-07-29T06:51:12;5.88;;;4.22;;
13252;SDS011;6693;54.370;10.132;2022-07-29T06:53:14;6.93;;;3.90;;
13252;SDS011;6693;54.370;10.132;2022-07-29T06:55:16;4.45;;;3.58;;
13252;SDS011;6693;54.370;10.132;2022-07-29T06:57:20;9.45;;;5.47;;
13252;SDS011;6693;54.370;10.132;2022-07-29T06:59:22;8.20;;;7.18;;
13252;SDS011;6693;54.370;10.132;2022-07-29T07:01:24;6.00;;;4.93;;
13252;SDS011;6693;54.370;10.132;2022-07-29T07:03:25;5.93;;;4.88;;
13252;SDS011;6693;54.370;10.132;2022-07-29T07:05:27;6.22;;;3.80;;
13252;SDS011;6693;54.370;10.132;2022-07-29T07:07:29;5.55;;;3.20;;
13252;SDS011;6693;54.370;10.132;2022-07-29T07:09:30;5.45;;;3.10;;
13252;SDS011;6693;54.370;10.132;2022-07-29T07:11:32;5.78;;;3.28;;
13252;SDS011;6693;54.370;10.132;2022-07-29T07:13:35;4.82;;;3.03;;
13252;SDS011;6693;54.370;10.132;2022-07-29T07:15:37;3.72;;;2.90;;
13252;SDS011;6693;54.370;10.132;2022-07-29T07:17:39;3.20;;;2.78;;
13252;SDS011;6693;54.370;10.132;2022-07-29T07:19:41;5.03;;;2.92;;
13252;SDS011;6693;54.370;10.132;2022-07-29T07:21:42;4.75;;;3.20;;
13252;SDS011;6693;54.370;10.132;2022-07-29T07:23:44;4.72;;;2.65;;
13252;SDS011;6693;54.370;10.132;2022-07-29T07:25:46;5.80;;;2.90;;
13252;SDS011;6693;54.370;10.132;2022-07-29T07:27:47;3.83;;;2.80;;
13252;SDS011;6693;54.370;10.132;2022-07-29T07:29:50;3.75;;;2.60;;
13252;SDS011;6693;54.370;10.132;2022-07-29T07:31:52;4.78;;;2.40;;
13252;SDS011;6693;54.370;10.132;2022-07-29T07:33:55;3.95;;;2.55;;
13252;SDS011;6693;54.370;10.132;2022-07-29T07:35:56;4.97;;;2.85;;
13252;SDS011;6693;54.370;10.132;2022-07-29T07:37:58;3.33;;;2.60;;
13252;SDS011;6693;54.370;10.132;2022-07-29T07:40:00;3.55;;;2.60;;
13252;SDS011;6693;54.370;10.132;2022-07-29T07:42:02;3.45;;;2.25;;
13252;SDS011;6693;54.370;10.132;2022-07-29T07:44:04;3.00;;;2.30;;
13252;SDS011;6693;54.370;10.132;2022-07-29T07:46:07;2.85;;;2.20;;
13252;SDS011;6693;54.370;10.132;2022-07-29T07:48:09;2.58;;;2.22;;
13252;SDS011;6693;54.370;10.132;2022-07-29T07:50:11;2.85;;;2.20;;
13252;SDS011;6693;54.370;10.132;2022-07-29T07:52:13;2.92;;;2.53;;
13252;SDS011;6693;54.370;10.132;2022-07-29T07:54:14;3.20;;;2.50;;
13252;SDS011;6693;54.370;10.132;2022-07-29T07:56:16;3.67;;;2.63;;
13252;SDS011;6693;54.370;10.132;2022-07-29T07:58:18;3.00;;;2.10;;
13252;SDS011;6693;54.370;10.132;2022-07-29T08:00:20;2.70;;;2.22;;
13252;SDS011;6693;54.370;10.132;2022-07-29T08:02:23;3.85;;;2.35;;
13252;SDS011;6693;54.370;10.132;2022-07-29T08:04:25;4.40;;;2.80;;
13252;SDS011;6693;54.370;10.132;2022-07-29T08:06:26;3.20;;;2.03;;
13252;SDS011;6693;54.370;10.132;2022-07-29T08:08:28;3.85;;;2.30;;
13252;SDS011;6693;54.370;10.132;2022-07-29T08:10:30;6.00;;;2.45;;
13252;SDS011;6693;54.370;10.132;2022-07-29T08:12:49;4.47;;;2.30;;
13252;SDS011;6693;54.370;10.132;2022-07-29T08:14:50;5.07;;;2.30;;
13252;SDS011;6693;54.370;10.132;2022-07-29T08:16:52;3.22;;;2.40;;
13252;SDS011;6693;54.370;10.132;2022-07-29T08:18:55;5.22;;;2.38;;
13252;SDS011;6693;54.370;10.132;2022-07-29T08:20:57;5.15;;;2.42;;
13252;SDS011;6693;54.370;10.132;2022-07-29T08:23:00;2.88;;;2.00;;
13252;SDS011;6693;54.370;10.132;2022-07-29T08:25:01;2.83;;;2.53;;
13252;SDS011;6693;54.370;10.132;2022-07-29T08:27:03;3.10;;;2.25;;
13252;SDS011;6693;54.370;10.132;2022-07-29T08:29:05;4.70;;;2.50;;
13252;SDS011;6693;54.370;10.132;2022-07-29T08:31:06;2.42;;;2.17;;
13252;SDS011;6693;54.370;10.132;2022-07-29T08:33:08;4.25;;;2.38;;
13252;SDS011;6693;54.370;10.132;2022-07-29T08:35:11;2.50;;;2.30;;
13252;SDS011;6693;54.370;10.132;2022-07-29T08:37:13;4.22;;;2.60;;
13252;SDS011;6693;54.370;10.132;2022-07-29T08:39:15;3.80;;;2.45;;
13252;SDS011;6693;54.370;10.132;2022-07-29T08:41:17;4.72;;;2.22;;
13252;SDS011;6693;54.370;10.132;2022-07-29T08:43:19;2.85;;;2.28;;
13252;SDS011;6693;54.370;10.132;2022-07-29T08:45:21;3.80;;;2.50;;
13252;SDS011;6693;54.370;10.132;2022-07-29T08:47:25;2.72;;;2.40;;
13252;SDS011;6693;54.370;10.132;2022-07-29T08:49:28;3.63;;;2.40;;
13252;SDS011;6693;54.370;10.132;2022-07-29T08:51:31;3.58;;;2.33;;
13252;SDS011;6693;54.370;10.132;2022-07-29T08:53:35;5.13;;;4.53;;
13252;SDS011;6693;54.370;10.132;2022-07-29T08:55:38;4.20;;;3.30;;
13252;SDS011;6693;54.370;10.132;2022-07-29T08:57:41;4.40;;;3.97;;
13252;SDS011;6693;54.370;10.132;2022-07-29T08:59:42;6.13;;;5.63;;
13252;SDS011;6693;54.370;10.132;2022-07-29T09:01:48;13.30;;;4.10;;
13252;SDS011;6693;54.370;10.132;2022-07-29T09:03:54;6.20;;;5.15;;
13252;SDS011;6693;54.370;10.132;2022-07-29T09:05:56;8.75;;;6.93;;
13252;SDS011;6693;54.370;10.132;2022-07-29T09:08:00;6.82;;;4.20;;
13252;SDS011;6693;54.370;10.132;2022-07-29T09:10:03;3.75;;;2.65;;
13252;SDS011;6693;54.370;10.132;2022-07-29T09:12:06;4.68;;;2.80;;
13252;SDS011;6693;54.370;10.132;2022-07-29T09:14:10;2.85;;;2.65;;
13252;SDS011;6693;54.370;10.132;2022-07-29T09:16:13;5.63;;;2.47;;
13252;SDS011;6693;54.370;10.132;2022-07-29T09:18:29;3.60;;;2.70;;
13252;SDS011;6693;54.370;10.132;2022-07-29T09:20:34;4.22;;;2.80;;
13252;SDS011;6693;54.370;10.132;2022-07-29T09:22:54;4.53;;;2.70;;
13252;SDS011;6693;54.370;10.132;2022-07-29T09:24:57;3.47;;;2.45;;
13252;SDS011;6693;54.370;10.132;2022-07-29T09:26:58;3.10;;;2.55;;
13252;SDS011;6693;54.370;10.132;2022-07-29T09:29:01;4.13;;;2.60;;
13252;SDS011;6693;54.370;10.132;2022-07-29T09:31:09;3.45;;;2.70;;
13252;SDS011;6693;54.370;10.132;2022-07-29T09:33:11;3.35;;;2.50;;
13252;SDS011;6693;54.370;10.132;2022-07-29T09:35:19;4.00;;;2.28;;
13252;SDS011;6693;54.370;10.132;2022-07-29T09:37:25;2.90;;;2.28;;
13252;SDS011;6693;54.370;10.132;2022-07-29T09:39:28;4.93;;;2.53;;
13252;SDS011;6693;54.370;10.132;2022-07-29T09:41:44;2.53;;;2.10;;
13252;SDS011;6693;54.370;10.132;2022-07-29T09:43:53;4.07;;;2.60;;
13252;SDS011;6693;54.370;10.132;2022-07-29T09:45:56;3.28;;;2.33;;
13252;SDS011;6693;54.370;10.132;2022-07-29T09:48:14;4.82;;;2.40;;
13252;SDS011;6693;54.370;10.132;2022-07-29T09:50:17;2.75;;;2.20;;
13252;SDS011;6693;54.370;10.132;2022-07-29T09:52:23;2.95;;;2.10;;
13252;SDS011;6693;54.370;10.132;2022-07-29T09:54:26;5.80;;;2.40;;
13252;SDS011;6693;54.370;10.132;2022-07-29T09:56:37;4.30;;;2.35;;
13252;SDS011;6693;54.370;10.132;2022-07-29T09:58:41;3.72;;;2.40;;
13252;SDS011;6693;54.370;10.132;2022-07-29T10:00:43;5.47;;;2.45;;
13252;SDS011;6693;54.370;10.132;2022-07-29T10:02:46;6.03;;;2.40;;
13252;SDS011;6693;54.370;10.132;2022-07-29T10:04:48;2.83;;;2.20;;
13252;SDS011;6693;54.370;10.132;2022-07-29T10:06:56;4.80;;;2.30;;
13252;SDS011;6693;54.370;10.132;2022-07-29T10:09:06;5.55;;;2.28;;
13252;SDS011;6693;54.370;10.132;2022-07-29T10:11:09;3.15;;;2.45;;
13252;SDS011;6693;54.370;10.132;2022-07-29T10:13:12;4.47;;;2.40;;
13252;SDS011;6693;54.370;10.132;2022-07-29T10:15:17;2.90;;;2.28;;
13252;SDS011;6693;54.370;10.132;2022-07-29T10:17:19;3.30;;;2.28;;
13252;SDS011;6693;54.370;10.132;2022-07-29T10:19:21;4.15;;;2.15;;
13252;SDS011;6693;54.370;10.132;2022-07-29T10:21:23;3.40;;;2.50;;
13252;SDS011;6693;54.370;10.132;2022-07-29T10:23:25;4.60;;;2.80;;
13252;SDS011;6693;54.370;10.132;2022-07-29T10:25:28;3.67;;;2.45;;
13252;SDS011;6693;54.370;10.132;2022-07-29T10:27:30;5.28;;;2.83;;
13252;SDS011;6693;54.370;10.132;2022-07-29T10:29:31;3.55;;;2.42;;
13252;SDS011;6693;54.370;10.132;2022-07-29T10:31:36;3.50;;;2.30;;
13252;SDS011;6693;54.370;10.132;2022-07-29T10:33:47;3.00;;;2.35;;
13252;SDS011;6693;54.370;10.132;2022-07-29T10:36:01;4.13;;;2.40;;
13252;SDS011;6693;54.370;10.132;2022-07-29T10:38:13;3.45;;;2.45;;
13252;SDS011;6693;54.370;10.132;2022-07-29T10:40:34;4.65;;;2.30;;
13252;SDS011;6693;54.370;10.132;2022-07-29T10:43:02;3.53;;;2.20;;
13252;SDS011;6693;54.370;10.132;2022-07-29T10:45:15;3.92;;;2.40;;
13252;SDS011;6693;54.370;10.132;2022-07-29T10:47:23;3.15;;;2.42;;
13252;SDS011;6693;54.370;10.132;2022-07-29T10:49:26;6.95;;;2.78;;
13252;SDS011;6693;54.370;10.132;2022-07-29T10:51:43;3.03;;;2.20;;
13252;SDS011;6693;54.370;10.132;2022-07-29T10:53:53;2.85;;;2.45;;
13252;SDS011;6693;54.370;10.132;2022-07-29T10:55:54;3.97;;;2.20;;
13252;SDS011;6693;54.370;10.132;2022-07-29T10:58:10;2.30;;;2.00;;
13252;SDS011;6693;54.370;10.132;2022-07-29T11:00:26;3.05;;;2.03;;
13252;SDS011;6693;54.370;10.132;2022-07-29T11:02:46;4.05;;;1.90;;
13252;SDS011;6693;54.370;10.132;2022-07-29T11:04:59;3.83;;;2.15;;
13252;SDS011;6693;54.370;10.132;2022-07-29T11:07:06;2.83;;;2.17;;
13252;SDS011;6693;54.370;10.132;2022-07-29T11:09:15;3.47;;;2.13;;
13252;SDS011;6693;54.370;10.132;2022-07-29T11:13:45;3.60;;;2.20;;
13252;SDS011;6693;54.370;10.132;2022-07-29T11:15:52;2.08;;;1.85;;
13252;SDS011;6693;54.370;10.132;2022-07-29T11:18:05;3.03;;;1.80;;
13252;SDS011;6693;54.370;10.132;2022-07-29T11:22:41;2.33;;;1.90;;
13252;SDS011;6693;54.370;10.132;2022-07-29T11:24:45;3.17;;;2.03;;
13252;SDS011;6693;54.370;10.132;2022-07-29T11:27:14;2.15;;;1.80;;
13252;SDS011;6693;54.370;10.132;2022-07-29T11:29:19;4.05;;;2.00;;
13252;SDS011;6693;54.370;10.132;2022-07-29T11:31:32;3.00;;;2.10;;
13252;SDS011;6693;54.370;10.132;2022-07-29T11:33:37;5.30;;;2.22;;
13252;SDS011;6693;54.370;10.132;2022-07-29T11:35:40;4.10;;;2.30;;
13252;SDS011;6693;54.370;10.132;2022-07-29T11:37:42;2.38;;;2.17;;
13252;SDS011;6693;54.370;10.132;2022-07-29T11:39:44;2.97;;;1.98;;
13252;SDS011;6693;54.370;10.132;2022-07-29T11:41:47;2.35;;;2.15;;
13252;SDS011;6693;54.370;10.132;2022-07-29T11:43:49;4.30;;;2.42;;
13252;SDS011;6693;54.370;10.132;2022-07-29T11:45:52;4.03;;;2.40;;
13252;SDS011;6693;54.370;10.132;2022-07-29T11:47:54;5.53;;;2.28;;
13252;SDS011;6693;54.370;10.132;2022-07-29T11:50:00;2.50;;;2.30;;
13252;SDS011;6693;54.370;10.132;2022-07-29T11:52:03;3.33;;;2.35;;
13252;SDS011;6693;54.370;10.132;2022-07-29T11:54:05;5.00;;;2.13;;
13252;SDS011;6693;54.370;10.132;2022-07-29T11:56:08;3.67;;;2.20;;
13252;SDS011;6693;54.370;10.132;2022-07-29T11:58:11;3.30;;;2.20;;
13252;SDS011;6693;54.370;10.132;2022-07-29T12:00:20;3.40;;;2.20;;
13252;SDS011;6693;54.370;10.132;2022-07-29T12:02:24;3.33;;;2.40;;
13252;SDS011;6693;54.370;10.132;2022-07-29T12:04:25;2.47;;;2.28;;
13252;SDS011;6693;54.370;10.132;2022-07-29T12:06:28;3.80;;;2.30;;
13252;SDS011;6693;54.370;10.132;2022-07-29T12:08:30;3.83;;;2.50;;
13252;SDS011;6693;54.370;10.132;2022-07-29T12:10:42;2.55;;;2.15;;
13252;SDS011;6693;54.370;10.132;2022-07-29T12:12:44;3.38;;;2.40;;
13252;SDS011;6693;54.370;10.132;2022-07-29T12:14:52;4.40;;;2.35;;
13252;SDS011;6693;54.370;10.132;2022-07-29T12:16:55;4.85;;;2.40;;
13252;SDS011;6693;54.370;10.132;2022-07-29T12:18:57;3.90;;;2.58;;
13252;SDS011;6693;54.370;10.132;2022-07-29T12:21:00;5.60;;;2.75;;
13252;SDS011;6693;54.370;10.132;2022-07-29T12:23:06;2.72;;;2.13;;
13252;SDS011;6693;54.370;10.132;2022-07-29T12:25:09;3.50;;;2.20;;
13252;SDS011;6693;54.370;10.132;2022-07-29T12:27:16;2.95;;;2.33;;
13252;SDS011;6693;54.370;10.132;2022-07-29T12:29:18;4.15;;;2.38;;
13252;SDS011;6693;54.370;10.132;2022-07-29T12:31:20;2.90;;;2.38;;
13252;SDS011;6693;54.370;10.132;2022-07-29T12:33:22;5.70;;;2.40;;
13252;SDS011;6693;54.370;10.132;2022-07-29T12:35:26;4.72;;;2.30;;
13252;SDS011;6693;54.370;10.132;2022-07-29T12:37:28;6.30;;;4.95;;